createdAt,value
2019-03-21T00:01:57.228Z,46.80
2019-03-21T00:04:27.478Z,46.70
2019-03-21T00:06:57.769Z,46.60
2019-03-21T00:09:28.135Z,46.70
2019-03-21T00:12:00.396Z,46.60
2019-03-21T00:14:47.550Z,46.60
2019-03-21T00:17:21.009Z,46.60
2019-03-21T00:19:51.330Z,46.70
2019-03-21T00:22:21.677Z,46.60
2019-03-21T00:24:52.109Z,46.60
2019-03-21T00:27:22.401Z,46.80
2019-03-21T00:29:52.706Z,46.80
2019-03-21T00:32:22.997Z,46.70
2019-03-21T00:34:53.365Z,46.60
2019-03-21T00:37:23.698Z,47.30
2019-03-21T00:39:54.044Z,46.50
2019-03-21T00:42:24.270Z,46.60
2019-03-21T00:44:54.509Z,46.50
2019-03-21T00:47:24.954Z,46.50
2019-03-21T00:49:55.262Z,46.50
2019-03-21T00:52:25.488Z,46.50
2019-03-21T00:54:55.721Z,46.50
2019-03-21T00:57:25.958Z,46.50
2019-03-21T00:59:56.401Z,46.40
2019-03-21T01:02:26.793Z,47.20
2019-03-21T01:04:57.276Z,46.40
2019-03-21T01:07:27.642Z,46.40
2019-03-21T01:09:57.983Z,46.40
2019-03-21T01:12:28.353Z,46.30
2019-03-21T01:14:58.662Z,46.30
2019-03-21T01:17:29.086Z,46.30
2019-03-21T01:19:59.344Z,46.40
2019-03-21T01:22:29.559Z,46.60
2019-03-21T01:24:59.942Z,46.40
2019-03-21T01:27:30.402Z,46.40
2019-03-21T01:30:00.702Z,46.60
2019-03-21T01:32:30.993Z,46.60
2019-03-21T01:35:01.399Z,46.50
2019-03-21T01:37:31.621Z,46.70
2019-03-21T01:40:01.995Z,46.70
2019-03-21T01:42:32.353Z,46.40
2019-03-21T01:45:02.682Z,46.40
2019-03-21T01:47:32.897Z,46.30
2019-03-21T01:50:03.382Z,46.20
2019-03-21T01:52:33.722Z,46.00
2019-03-21T01:55:04.185Z,45.80
2019-03-21T01:57:34.428Z,45.70
2019-03-21T02:00:05.565Z,45.60
2019-03-21T02:02:35.936Z,45.60
2019-03-21T02:05:06.645Z,45.60
2019-03-21T02:07:36.945Z,45.50
2019-03-21T02:10:10.265Z,45.50
2019-03-21T02:12:40.571Z,45.50
2019-03-21T02:15:12.002Z,45.50
2019-03-21T02:17:42.395Z,45.40
2019-03-21T02:20:14.229Z,45.40
2019-03-21T02:22:44.763Z,45.40
2019-03-21T02:25:20.550Z,45.40
2019-03-21T02:27:50.970Z,45.40
2019-03-21T02:30:24.135Z,45.30
2019-03-21T02:32:57.319Z,45.30
2019-03-21T02:35:30.825Z,45.30
2019-03-21T02:37:59.716Z,45.30
2019-03-21T02:40:31.029Z,45.40
2019-03-21T02:43:01.399Z,45.30
2019-03-21T02:45:32.822Z,45.40
2019-03-21T02:48:03.224Z,45.50
2019-03-21T02:50:34.081Z,45.50
2019-03-21T02:53:04.838Z,45.80
2019-03-21T02:55:35.150Z,45.80
2019-03-21T02:58:05.448Z,45.80
2019-03-21T03:00:35.855Z,45.70
2019-03-21T03:03:06.273Z,45.60
2019-03-21T03:05:36.525Z,45.50
2019-03-21T03:08:06.872Z,45.50
2019-03-21T03:10:45.857Z,45.50
2019-03-21T03:13:16.421Z,45.50
2019-03-21T03:15:46.975Z,45.50
2019-03-21T03:18:17.309Z,45.50
2019-03-21T03:20:47.607Z,45.60
2019-03-21T03:23:17.890Z,45.70
2019-03-21T03:25:50.977Z,45.50
2019-03-21T03:28:22.475Z,45.50
2019-03-21T03:30:54.051Z,45.40
2019-03-21T03:33:24.470Z,45.50
2019-03-21T03:35:54.819Z,45.40
2019-03-21T03:38:25.215Z,45.40
2019-03-21T03:40:58.544Z,45.40
2019-03-21T03:43:28.847Z,45.50
2019-03-21T03:45:59.175Z,45.40
2019-03-21T03:48:29.615Z,45.50
2019-03-21T03:50:59.911Z,45.50
2019-03-21T03:53:30.219Z,45.50
2019-03-21T03:56:00.510Z,45.50
2019-03-21T03:58:30.882Z,45.60
2019-03-21T04:01:01.348Z,45.70
2019-03-21T04:03:31.666Z,45.70
2019-03-21T04:06:01.890Z,45.70
2019-03-21T04:08:32.120Z,45.50
2019-03-21T04:11:02.330Z,45.50
2019-03-21T04:13:32.619Z,45.30
2019-03-21T04:16:02.849Z,45.20
2019-03-21T04:18:33.273Z,45.10
2019-03-21T04:21:03.913Z,45.40
2019-03-21T04:23:34.290Z,45.00
2019-03-21T04:26:15.755Z,44.80
2019-03-21T04:28:46.019Z,44.70
2019-03-21T04:31:16.317Z,45.60
2019-03-21T04:33:46.635Z,44.80
2019-03-21T04:36:16.889Z,44.70
2019-03-21T04:38:47.258Z,44.80
2019-03-21T04:41:17.542Z,44.80
2019-03-21T04:43:47.905Z,44.80
2019-03-21T04:46:18.146Z,44.80
2019-03-21T04:48:48.360Z,44.70
2019-03-21T04:51:18.662Z,44.70
2019-03-21T04:53:48.998Z,44.70
2019-03-21T04:56:19.242Z,44.70
2019-03-21T04:58:49.497Z,44.70
2019-03-21T05:01:19.780Z,44.60
2019-03-21T05:03:51.066Z,44.70
2019-03-21T05:06:21.449Z,44.70
2019-03-21T05:08:51.822Z,44.80
2019-03-21T05:11:22.379Z,44.70
2019-03-21T05:13:52.661Z,44.70
2019-03-21T05:16:23.145Z,44.80
2019-03-21T05:18:54.361Z,44.80
2019-03-21T05:21:24.638Z,45.00
2019-03-21T05:23:54.925Z,45.00
2019-03-21T05:26:25.309Z,45.20
2019-03-21T05:28:55.597Z,45.10
2019-03-21T05:31:29.294Z,45.20
2019-03-21T05:33:59.509Z,45.10
2019-03-21T05:36:29.828Z,45.10
2019-03-21T05:39:00.052Z,44.90
2019-03-21T05:41:30.273Z,45.00
2019-03-21T05:44:04.830Z,44.90
2019-03-21T05:46:35.070Z,44.90
2019-03-21T05:49:05.371Z,44.90
2019-03-21T05:51:35.745Z,45.00
2019-03-21T05:54:06.039Z,45.00
2019-03-21T05:56:36.277Z,45.00
2019-03-21T05:59:06.593Z,45.00
2019-03-21T06:01:37.026Z,45.00
2019-03-21T06:04:07.247Z,44.90
2019-03-21T06:06:47.717Z,45.00
2019-03-21T06:09:19.600Z,45.00
2019-03-21T06:11:53.912Z,44.90
2019-03-21T06:14:24.550Z,45.00
2019-03-21T06:16:55.000Z,45.00
2019-03-21T06:19:41.598Z,45.30
2019-03-21T06:22:54.436Z,45.10
2019-03-21T06:25:49.574Z,45.00
2019-03-21T06:28:19.990Z,45.10
2019-03-21T06:30:50.355Z,45.10
2019-03-21T06:33:20.662Z,45.20
2019-03-21T06:35:51.153Z,45.50
2019-03-21T06:38:21.373Z,45.70
2019-03-21T06:40:51.679Z,46.30
2019-03-21T06:43:22.005Z,47.30
2019-03-21T06:45:52.227Z,48.00
2019-03-21T06:48:22.527Z,47.00
2019-03-21T06:50:53.002Z,46.80
2019-03-21T06:53:23.246Z,46.80
2019-03-21T06:55:54.605Z,46.90
2019-03-21T06:58:25.000Z,46.90
2019-03-21T07:00:55.397Z,47.10
2019-03-21T07:03:25.623Z,47.20
2019-03-21T07:05:55.941Z,47.20
2019-03-21T07:08:26.215Z,47.90
2019-03-21T07:10:58.401Z,47.00
2019-03-21T07:13:28.818Z,46.90
2019-03-21T07:16:00.117Z,47.00
2019-03-21T07:18:30.601Z,47.10
2019-03-21T07:21:01.273Z,47.10
2019-03-21T07:23:31.709Z,47.00
2019-03-21T07:26:02.204Z,47.00
2019-03-21T07:28:32.574Z,46.90
2019-03-21T07:31:03.014Z,47.60
2019-03-21T07:33:33.406Z,46.80
2019-03-21T07:36:03.712Z,46.80
2019-03-21T07:38:34.129Z,46.80
2019-03-21T07:41:04.458Z,46.80
2019-03-21T07:43:34.817Z,46.90
2019-03-21T07:46:05.064Z,47.80
2019-03-21T07:48:35.293Z,47.10
2019-03-21T07:51:05.534Z,47.10
2019-03-21T07:53:35.838Z,47.20
2019-03-21T07:56:06.513Z,47.20
2019-03-21T07:58:36.822Z,47.30
2019-03-21T08:01:07.225Z,47.40
2019-03-21T08:03:37.626Z,47.30
2019-03-21T08:06:07.848Z,47.30
2019-03-21T08:08:38.157Z,47.20
2019-03-21T08:11:08.382Z,47.10
2019-03-21T08:13:38.762Z,47.20
2019-03-21T08:16:09.187Z,47.10
2019-03-21T08:18:39.657Z,47.10
2019-03-21T08:21:09.894Z,47.10
2019-03-21T08:23:40.193Z,47.10
2019-03-21T08:26:10.422Z,47.00
2019-03-21T08:28:40.721Z,47.10
2019-03-21T08:31:15.705Z,47.00
2019-03-21T08:33:46.430Z,47.00
2019-03-21T08:36:16.834Z,46.90
2019-03-21T08:38:47.278Z,46.90
2019-03-21T08:41:17.531Z,47.00
2019-03-21T08:43:47.767Z,46.90
2019-03-21T08:46:18.089Z,47.00
2019-03-21T08:48:48.458Z,47.00
2019-03-21T08:51:18.765Z,47.00
2019-03-21T08:53:49.070Z,47.00
2019-03-21T08:56:19.543Z,47.00
2019-03-21T08:58:49.910Z,47.00
2019-03-21T09:01:20.137Z,46.90
2019-03-21T09:03:51.440Z,47.00
2019-03-21T09:06:21.739Z,47.70
2019-03-21T09:08:52.059Z,46.90
2019-03-21T09:11:22.558Z,47.00
2019-03-21T09:13:52.921Z,46.90
2019-03-21T09:16:23.222Z,46.90
2019-03-21T09:18:53.597Z,46.90
2019-03-21T09:21:23.970Z,47.00
2019-03-21T09:23:54.275Z,46.90
2019-03-21T09:26:24.493Z,46.90
2019-03-21T09:28:54.880Z,46.90
2019-03-21T09:31:25.169Z,46.80
2019-03-21T09:33:55.396Z,47.70
2019-03-21T09:36:25.697Z,46.90
2019-03-21T09:38:55.925Z,46.90
2019-03-21T09:41:26.381Z,46.80
2019-03-21T09:43:56.630Z,47.00
2019-03-21T09:46:27.013Z,47.00
2019-03-21T09:48:57.304Z,46.80
2019-03-21T09:51:31.087Z,46.70
2019-03-21T09:54:09.323Z,46.60
2019-03-21T09:56:31.686Z,46.30
2019-03-21T09:59:02.023Z,46.20
2019-03-21T10:01:32.338Z,46.00
2019-03-21T10:04:02.762Z,45.90
2019-03-21T10:06:33.076Z,45.70
2019-03-21T10:09:05.274Z,45.70
2019-03-21T10:11:35.598Z,45.50
2019-03-21T10:14:05.926Z,45.50
2019-03-21T10:16:36.227Z,45.60
2019-03-21T10:19:06.737Z,45.60
2019-03-21T10:21:43.193Z,45.50
2019-03-21T10:24:09.190Z,45.50
2019-03-21T10:26:39.673Z,45.40
2019-03-21T10:29:09.953Z,45.40
2019-03-21T10:31:40.427Z,45.40
2019-03-21T10:34:10.925Z,45.40
2019-03-21T10:36:41.457Z,45.40
2019-03-21T10:39:12.009Z,46.10
2019-03-21T10:41:42.237Z,45.50
2019-03-21T10:44:12.633Z,45.50
2019-03-21T10:46:43.015Z,45.50
2019-03-21T10:49:13.426Z,45.50
2019-03-21T10:51:54.452Z,45.50
2019-03-21T10:54:16.007Z,45.50
2019-03-21T10:56:46.291Z,45.50
2019-03-21T10:59:16.739Z,45.60
2019-03-21T11:01:47.247Z,45.70
2019-03-21T11:04:17.482Z,45.60
2019-03-21T11:06:47.779Z,45.70
2019-03-21T11:09:18.087Z,45.60
2019-03-21T11:11:48.455Z,45.70
2019-03-21T11:14:20.353Z,45.70
2019-03-21T11:16:50.721Z,46.50
2019-03-21T11:19:21.118Z,45.80
2019-03-21T11:21:51.421Z,45.70
2019-03-21T11:24:21.642Z,45.70
2019-03-21T11:26:51.913Z,46.40
2019-03-21T11:29:22.205Z,45.70
2019-03-21T11:31:52.491Z,45.70
2019-03-21T11:34:22.710Z,45.70
2019-03-21T11:36:53.161Z,45.70
2019-03-21T11:39:23.461Z,45.70
2019-03-21T11:41:53.878Z,45.70
2019-03-21T11:44:24.118Z,45.70
2019-03-21T11:46:54.547Z,45.80
2019-03-21T11:49:24.777Z,45.80
2019-03-21T11:51:55.009Z,45.80
2019-03-21T11:54:25.529Z,45.80
2019-03-21T11:56:55.766Z,45.90
2019-03-21T11:59:36.975Z,45.80
2019-03-21T12:01:59.056Z,45.90
2019-03-21T12:04:29.359Z,45.80
2019-03-21T12:06:59.649Z,45.80
2019-03-21T12:09:29.910Z,45.80
2019-03-21T12:12:00.329Z,45.80
2019-03-21T12:14:30.689Z,45.80
2019-03-21T12:17:00.988Z,45.70
2019-03-21T12:19:31.306Z,45.80
2019-03-21T12:22:01.525Z,45.70
2019-03-21T12:24:31.904Z,45.80
2019-03-21T12:27:02.132Z,45.90
2019-03-21T12:29:32.357Z,45.90
2019-03-21T12:32:02.758Z,45.90
2019-03-21T12:34:33.047Z,45.90
2019-03-21T12:37:03.331Z,45.90
2019-03-21T12:39:34.522Z,45.90
2019-03-21T12:42:04.781Z,45.80
2019-03-21T12:44:35.151Z,45.80
2019-03-21T12:47:05.515Z,45.90
2019-03-21T12:49:35.974Z,45.90
2019-03-21T12:52:06.345Z,45.80
2019-03-21T12:54:36.565Z,45.80
2019-03-21T12:57:06.790Z,45.80
2019-03-21T12:59:37.017Z,45.80
2019-03-21T13:02:07.234Z,45.80
2019-03-21T13:04:37.517Z,45.70
2019-03-21T13:07:07.762Z,45.70
2019-03-21T13:09:38.118Z,45.70
2019-03-21T13:12:08.409Z,45.70
2019-03-21T13:14:38.643Z,45.70
2019-03-21T13:17:08.857Z,45.70
2019-03-21T13:19:39.140Z,45.70
2019-03-21T13:22:09.546Z,45.70
2019-03-21T13:24:39.765Z,45.70
2019-03-21T13:27:10.051Z,45.80
2019-03-21T13:29:40.269Z,45.90
2019-03-21T13:32:10.711Z,46.40
2019-03-21T13:34:41.150Z,45.70
2019-03-21T13:37:11.412Z,45.70
2019-03-21T13:39:41.699Z,45.70
2019-03-21T13:42:11.994Z,45.80
2019-03-21T13:44:42.224Z,45.70
2019-03-21T13:47:12.447Z,45.80
2019-03-21T13:49:42.745Z,45.70
2019-03-21T13:52:13.286Z,45.70
2019-03-21T13:54:43.813Z,45.70
2019-03-21T13:57:14.098Z,45.70
2019-03-21T13:59:44.415Z,45.70
2019-03-21T14:02:14.730Z,45.70
2019-03-21T14:04:44.971Z,45.80
2019-03-21T14:07:15.222Z,45.80
2019-03-21T14:09:45.538Z,45.80
2019-03-21T14:12:15.838Z,45.80
2019-03-21T14:14:46.270Z,45.80
2019-03-21T14:17:21.806Z,45.80
2019-03-21T14:19:48.737Z,45.80
2019-03-21T14:22:21.295Z,45.80
2019-03-21T14:24:51.129Z,45.90
2019-03-21T14:27:21.362Z,46.30
2019-03-21T14:30:00.771Z,46.40
2019-03-21T14:32:23.807Z,46.40
2019-03-21T14:34:54.142Z,46.40
2019-03-21T14:37:24.449Z,47.30
2019-03-21T14:39:54.830Z,46.20
2019-03-21T14:42:25.491Z,46.40
2019-03-21T14:44:55.909Z,46.30
2019-03-21T14:47:35.821Z,46.20
2019-03-21T14:49:58.172Z,46.10
2019-03-21T14:52:28.467Z,46.00
2019-03-21T14:54:59.052Z,45.90
2019-03-21T14:57:29.625Z,45.80
2019-03-21T14:59:59.874Z,46.10
2019-03-21T15:02:30.185Z,46.10
2019-03-21T15:05:00.420Z,46.50
2019-03-21T15:07:30.817Z,46.70
2019-03-21T15:10:01.034Z,46.60
2019-03-21T15:12:31.549Z,46.70
2019-03-21T15:15:01.999Z,46.60
2019-03-21T15:17:33.557Z,46.70
2019-03-21T15:20:04.498Z,46.80
2019-03-21T15:22:34.771Z,46.70
2019-03-21T15:25:05.861Z,46.70
2019-03-21T15:27:36.363Z,46.80
2019-03-21T15:30:08.809Z,46.80
2019-03-21T15:32:41.697Z,46.80
2019-03-21T15:35:11.348Z,47.00
2019-03-21T15:37:41.838Z,47.80
2019-03-21T15:40:12.734Z,47.10
2019-03-21T15:42:42.958Z,47.20
2019-03-21T15:45:22.108Z,47.20
2019-03-21T15:47:46.766Z,47.40
2019-03-21T15:50:28.105Z,47.40
2019-03-21T15:52:58.736Z,47.50
2019-03-21T15:55:29.101Z,47.40
2019-03-21T15:57:59.413Z,47.30
2019-03-21T16:00:41.122Z,47.30
2019-03-21T16:03:11.684Z,47.10
2019-03-21T16:05:42.035Z,46.90
2019-03-21T16:08:12.497Z,46.80
2019-03-21T16:10:42.949Z,46.70
2019-03-21T16:13:13.426Z,46.50
2019-03-21T16:15:44.494Z,46.40
2019-03-21T16:18:14.910Z,46.50
2019-03-21T16:20:45.332Z,46.40
2019-03-21T16:23:15.645Z,46.50
2019-03-21T16:25:48.456Z,46.80
2019-03-21T16:28:20.096Z,47.00
2019-03-21T16:30:49.906Z,46.90
2019-03-21T16:33:20.122Z,46.90
2019-03-21T16:35:50.517Z,47.00
2019-03-21T16:38:20.958Z,47.90
2019-03-21T16:40:51.336Z,47.40
2019-03-21T16:43:21.769Z,47.60
2019-03-21T16:45:52.081Z,48.40
2019-03-21T16:48:22.385Z,48.00
2019-03-21T16:50:52.828Z,47.80
2019-03-21T16:53:23.325Z,47.70
2019-03-21T16:55:53.630Z,47.70
2019-03-21T16:58:23.944Z,47.80
2019-03-21T17:00:54.190Z,47.70
2019-03-21T17:03:24.518Z,47.70
2019-03-21T17:05:54.815Z,47.70
2019-03-21T17:08:25.153Z,47.60
2019-03-21T17:10:55.467Z,47.60
2019-03-21T17:13:25.902Z,47.80
2019-03-21T17:15:56.319Z,47.70
2019-03-21T17:18:26.640Z,47.70
2019-03-21T17:20:57.087Z,47.70
2019-03-21T17:23:27.539Z,47.80
2019-03-21T17:25:57.834Z,47.90
2019-03-21T17:28:28.381Z,47.80
2019-03-21T17:30:58.887Z,47.90
2019-03-21T17:33:29.366Z,47.90
2019-03-21T17:36:00.072Z,47.90
2019-03-21T17:38:30.450Z,47.90
2019-03-21T17:41:00.938Z,48.00
2019-03-21T17:43:31.414Z,48.00
2019-03-21T17:46:01.757Z,48.10
2019-03-21T17:48:32.133Z,48.10
2019-03-21T17:51:02.528Z,48.00
2019-03-21T17:53:32.918Z,48.00
2019-03-21T17:56:03.293Z,48.20
2019-03-21T17:58:33.687Z,48.30
2019-03-21T18:01:04.250Z,48.40
2019-03-21T18:03:34.545Z,48.30
2019-03-21T18:06:04.911Z,48.60
2019-03-21T18:08:35.225Z,48.50
2019-03-21T18:11:05.562Z,49.40
2019-03-21T18:13:35.894Z,49.00
2019-03-21T18:16:07.519Z,48.60
2019-03-21T18:18:38.316Z,48.40
2019-03-21T18:21:08.966Z,48.20
2019-03-21T18:23:39.345Z,48.10
2019-03-21T18:26:09.722Z,47.90
2019-03-21T18:28:40.194Z,47.70
2019-03-21T18:31:10.498Z,47.60
2019-03-21T18:33:40.834Z,47.30
2019-03-21T18:36:11.125Z,47.50
2019-03-21T18:38:41.358Z,47.10
2019-03-21T18:41:11.663Z,46.90
2019-03-21T18:43:42.054Z,46.90
2019-03-21T18:46:12.386Z,46.80
2019-03-21T18:48:43.853Z,46.70
2019-03-21T18:51:14.158Z,46.70
2019-03-21T18:53:44.602Z,47.20
2019-03-21T18:56:15.207Z,47.40
2019-03-21T18:59:04.497Z,47.10
2019-03-21T19:01:34.793Z,47.00
2019-03-21T19:04:05.369Z,47.10
2019-03-21T19:06:35.681Z,47.40
2019-03-21T19:09:09.755Z,47.70
2019-03-21T19:11:40.713Z,47.80
2019-03-21T19:14:11.025Z,47.80
2019-03-21T19:16:41.269Z,47.70
2019-03-21T19:19:11.570Z,47.80
2019-03-21T19:21:41.945Z,47.70
2019-03-21T19:24:12.185Z,47.60
2019-03-21T19:26:42.573Z,47.70
2019-03-21T19:29:14.974Z,47.70
2019-03-21T19:31:45.041Z,47.60
2019-03-21T19:34:15.379Z,47.60
2019-03-21T19:36:45.978Z,47.80
2019-03-21T19:39:16.418Z,47.70
2019-03-21T19:41:47.633Z,47.70
2019-03-21T19:44:18.029Z,47.90
2019-03-21T19:46:48.407Z,48.00
2019-03-21T19:49:18.638Z,48.00
2019-03-21T19:51:48.962Z,48.00
2019-03-21T19:54:21.795Z,48.10
2019-03-21T19:56:52.170Z,48.30
2019-03-21T19:59:22.479Z,48.40
2019-03-21T20:01:52.797Z,48.50
2019-03-21T20:04:24.183Z,49.00
2019-03-21T20:06:54.502Z,49.00
2019-03-21T20:09:25.002Z,49.20
2019-03-21T20:11:55.233Z,49.00
2019-03-21T20:14:25.694Z,49.00
2019-03-21T20:16:56.065Z,48.80
2019-03-21T20:19:26.526Z,49.30
2019-03-21T20:21:56.993Z,49.10
2019-03-21T20:24:27.410Z,49.40
2019-03-21T20:26:57.779Z,49.10
2019-03-21T20:29:28.106Z,50.00
2019-03-21T20:31:58.505Z,50.80
2019-03-21T20:34:28.918Z,51.60
2019-03-21T20:37:00.229Z,51.70
2019-03-21T20:39:31.782Z,51.50
2019-03-21T20:42:02.025Z,52.30
2019-03-21T20:44:33.664Z,52.70
2019-03-21T20:47:04.001Z,52.20
2019-03-21T20:49:34.352Z,51.90
2019-03-21T20:52:05.705Z,51.40
2019-03-21T20:54:36.104Z,51.70
2019-03-21T20:57:06.571Z,51.40
2019-03-21T20:59:36.873Z,51.50
2019-03-21T21:02:07.249Z,51.70
2019-03-21T21:04:37.579Z,51.50
2019-03-21T21:07:07.996Z,51.50
2019-03-21T21:09:38.329Z,51.30
2019-03-21T21:12:08.794Z,51.30
2019-03-21T21:14:39.108Z,51.30
2019-03-21T21:17:09.413Z,51.60
2019-03-21T21:19:39.661Z,51.80
2019-03-21T21:22:10.206Z,51.50
2019-03-21T21:24:40.458Z,51.50
2019-03-21T21:27:10.838Z,51.40
2019-03-21T21:29:43.040Z,51.30
2019-03-21T21:32:14.151Z,51.10
2019-03-21T21:34:44.571Z,51.00
2019-03-21T21:37:14.970Z,51.20
2019-03-21T21:39:45.253Z,51.10
2019-03-21T21:42:15.523Z,51.20
2019-03-21T21:44:45.841Z,51.10
2019-03-21T21:47:16.158Z,51.10
2019-03-21T21:49:46.454Z,51.00
2019-03-21T21:52:16.788Z,50.90
2019-03-21T21:54:49.185Z,50.80
2019-03-21T21:57:19.353Z,50.90
2019-03-21T21:59:49.609Z,51.00
2019-03-21T22:02:20.109Z,50.90
2019-03-21T22:04:50.417Z,50.90
2019-03-21T22:07:20.713Z,51.00
2019-03-21T22:09:50.967Z,51.10
2019-03-21T22:12:21.513Z,51.20
2019-03-21T22:14:51.809Z,51.30
2019-03-21T22:17:22.117Z,51.10
2019-03-21T22:19:52.422Z,51.20
2019-03-21T22:22:22.881Z,51.30
2019-03-21T22:24:53.152Z,51.40
2019-03-21T22:27:23.463Z,51.60
2019-03-21T22:29:53.721Z,51.20
2019-03-21T22:32:24.118Z,52.00
2019-03-21T22:34:55.613Z,51.20
2019-03-21T22:37:25.837Z,51.20
2019-03-21T22:39:56.151Z,51.50
2019-03-21T22:42:26.446Z,51.30
2019-03-21T22:44:56.758Z,51.20
2019-03-21T22:47:28.233Z,51.10
2019-03-21T22:49:58.646Z,51.10
2019-03-21T22:52:28.881Z,51.70
2019-03-21T22:54:59.149Z,51.10
2019-03-21T22:57:29.525Z,51.20
2019-03-21T22:59:59.917Z,51.00
2019-03-21T23:02:30.410Z,50.90
2019-03-21T23:05:01.326Z,50.90
2019-03-21T23:07:32.054Z,50.90
2019-03-21T23:10:02.585Z,50.90
2019-03-21T23:12:33.163Z,50.80
2019-03-21T23:15:03.724Z,50.90
2019-03-21T23:17:34.250Z,50.80
2019-03-21T23:20:05.456Z,50.90
2019-03-21T23:22:36.025Z,50.80
2019-03-21T23:25:07.750Z,50.90
2019-03-21T23:27:38.333Z,50.90
2019-03-21T23:30:09.569Z,50.90
2019-03-21T23:32:41.285Z,51.00
2019-03-21T23:35:12.872Z,50.90
2019-03-21T23:37:43.454Z,51.30
2019-03-21T23:40:14.169Z,51.00
2019-03-21T23:42:44.773Z,51.00
2019-03-21T23:45:15.390Z,51.00
2019-03-21T23:47:45.913Z,51.00
2019-03-21T23:50:16.446Z,51.00
2019-03-21T23:52:46.991Z,51.00
2019-03-21T23:55:17.485Z,51.00
2019-03-21T23:57:48.023Z,51.00
